createdAt,value
2023-03-13T00:00:16.783Z,87.9
2023-03-13T00:01:17.313Z,87.7
2023-03-13T00:02:16.963Z,87.7
2023-03-13T00:03:16.499Z,87.8
2023-03-13T00:04:17.076Z,87.9
2023-03-13T00:05:16.741Z,87.8
2023-03-13T00:06:17.258Z,87.8
2023-03-13T00:07:16.765Z,87.8
2023-03-13T00:08:17.291Z,87.7
2023-03-13T00:09:16.795Z,87.7
2023-03-13T00:10:17.354Z,87.8
2023-03-13T00:11:16.863Z,87.9
2023-03-13T00:12:16.924Z,87.9
2023-03-13T00:13:17.456Z,87.9
2023-03-13T00:14:16.930Z,87.9
2023-03-13T00:15:17.451Z,87.9
2023-03-13T00:16:17.150Z,88.0
2023-03-13T00:17:16.701Z,88.0
2023-03-13T00:18:17.204Z,87.9
2023-03-13T00:19:16.689Z,87.9
2023-03-13T00:20:17.192Z,87.9
2023-03-13T00:21:16.711Z,87.9
2023-03-13T00:22:17.399Z,87.9
2023-03-13T00:23:16.915Z,88.0
2023-03-13T00:24:17.390Z,88.0
2023-03-13T00:25:16.886Z,87.8
2023-03-13T00:26:17.430Z,87.9
2023-03-13T00:27:16.933Z,88.0
2023-03-13T00:28:17.426Z,87.9
2023-03-13T00:29:16.898Z,87.9
2023-03-13T00:30:17.410Z,88.0
2023-03-13T00:31:17.170Z,88.0
2023-03-13T00:32:16.958Z,87.9
2023-03-13T00:33:16.457Z,88.0
2023-03-13T00:34:16.976Z,87.9
2023-03-13T00:35:16.463Z,88.1
2023-03-13T00:36:16.976Z,88.1
2023-03-13T00:37:16.461Z,87.9
2023-03-13T00:38:16.984Z,87.8
2023-03-13T00:39:16.484Z,87.8
2023-03-13T00:40:16.990Z,87.8
2023-03-13T00:41:16.513Z,87.7
2023-03-13T00:42:17.175Z,87.8
2023-03-13T00:43:16.674Z,87.8
2023-03-13T00:44:17.181Z,87.8
2023-03-13T00:45:16.671Z,87.8
2023-03-13T00:46:17.318Z,87.9
2023-03-13T00:47:16.880Z,87.8
2023-03-13T00:48:17.384Z,87.8
2023-03-13T00:49:16.869Z,87.8
2023-03-13T00:50:17.342Z,87.8
2023-03-13T00:51:16.859Z,87.7
2023-03-13T00:52:16.960Z,87.8
2023-03-13T00:53:16.450Z,87.8
2023-03-13T00:54:16.989Z,87.7
2023-03-13T00:55:16.524Z,87.7
2023-03-13T01:14:16.677Z,87.6
2023-03-13T01:15:17.248Z,87.5
2023-03-13T01:16:17.113Z,87.4
2023-03-13T01:17:16.667Z,87.3
2023-03-13T01:18:17.146Z,87.3
2023-03-13T01:19:16.766Z,87.2
2023-03-13T01:20:17.310Z,87.4
2023-03-13T01:21:16.806Z,87.4
2023-03-13T01:22:17.201Z,87.3
2023-03-13T01:23:16.739Z,87.4
2023-03-13T01:26:17.129Z,87.4
2023-03-13T01:27:16.678Z,87.3
2023-03-13T01:28:17.205Z,87.3
2023-03-13T01:29:16.765Z,87.3
2023-03-13T01:30:17.307Z,87.2
2023-03-13T01:40:17.380Z,87.3
2023-03-13T01:41:16.909Z,87.3
2023-03-13T01:42:17.124Z,87.3
2023-03-13T01:43:27.547Z,87.4
2023-03-13T01:44:17.137Z,87.4
2023-03-13T01:45:16.666Z,87.4
2023-03-13T01:46:17.271Z,87.5
2023-03-13T02:28:30.378Z,87.6
2023-03-13T02:29:16.878Z,87.5
2023-03-13T02:30:17.383Z,87.5
2023-03-13T02:31:17.026Z,87.5
2023-03-13T02:32:17.639Z,87.6
2023-03-13T02:33:17.149Z,87.6
2023-03-13T02:34:16.676Z,87.7
2023-03-13T02:35:17.301Z,87.6
2023-03-13T02:36:16.797Z,87.5
2023-03-13T02:37:17.304Z,87.5
2023-03-13T02:38:16.799Z,87.5
2023-03-13T02:39:17.264Z,87.4
2023-03-13T02:40:16.778Z,87.3
2023-03-13T02:41:17.275Z,87.2
2023-03-13T02:42:16.539Z,87.3
2023-03-13T02:44:17.143Z,87.3
2023-03-13T02:45:16.704Z,87.3
2023-03-13T02:46:17.262Z,87.3
2023-03-13T02:47:16.811Z,87.3
2023-03-13T02:48:17.328Z,87.2
2023-03-13T02:49:16.827Z,87.1
2023-03-13T02:50:17.316Z,87.3
2023-03-13T02:51:16.788Z,87.3
2023-03-13T02:52:16.591Z,87.3
2023-03-13T02:53:17.076Z,87.3
2023-03-13T02:54:16.572Z,87.4
2023-03-13T02:55:17.069Z,87.3
2023-03-13T02:56:16.587Z,87.3
2023-03-13T02:57:17.095Z,87.3
2023-03-13T02:58:16.578Z,87.4
2023-03-13T02:59:17.079Z,87.3
2023-03-13T03:00:16.543Z,87.2
2023-03-13T03:01:17.284Z,87.1
2023-03-13T03:02:17.236Z,87.1
2023-03-13T03:03:16.772Z,87.2
2023-03-13T03:04:17.377Z,87.1
2023-03-13T03:05:16.905Z,87.1
2023-03-13T03:06:17.398Z,87.1
2023-03-13T03:07:16.940Z,87.2
2023-03-13T03:08:17.526Z,87.2
2023-03-13T03:09:17.059Z,87.1
2023-03-13T03:10:16.574Z,87.2
2023-03-13T03:11:17.077Z,87.2
2023-03-13T03:12:17.074Z,87.4
2023-03-13T03:13:16.576Z,87.2
2023-03-13T03:14:17.096Z,87.2
2023-03-13T03:15:16.575Z,87.3
2023-03-13T03:16:17.136Z,87.3
2023-03-13T03:17:16.660Z,87.4
2023-03-13T03:18:17.189Z,87.3
2023-03-13T03:19:16.670Z,87.4
2023-03-13T03:20:17.164Z,87.3
2023-03-13T03:21:16.675Z,87.3
2023-03-13T03:22:17.150Z,87.2
2023-03-13T03:23:16.668Z,87.3
2023-03-13T03:24:17.167Z,87.2
2023-03-13T03:25:16.661Z,87.2
2023-03-13T03:26:17.191Z,87.3
2023-03-13T03:27:16.668Z,87.3
2023-03-13T03:28:17.145Z,87.3
2023-03-13T03:29:16.672Z,87.2
2023-03-13T03:30:17.170Z,87.3
2023-03-13T03:31:16.842Z,87.3
2023-03-13T03:32:16.904Z,87.3
2023-03-13T03:33:17.409Z,87.3
2023-03-13T03:34:16.918Z,87.3
2023-03-13T03:35:17.418Z,87.3
2023-03-13T03:36:16.884Z,87.4
2023-03-13T03:37:17.410Z,87.4
2023-03-13T03:38:16.910Z,87.5
2023-03-13T03:39:17.420Z,87.4
2023-03-13T03:40:16.963Z,87.3
2023-03-13T03:41:16.492Z,87.4
2023-03-13T03:42:16.554Z,87.4
2023-03-13T03:43:17.045Z,87.6
2023-03-13T03:44:16.576Z,87.6
2023-03-13T03:45:17.063Z,87.6
2023-03-13T03:46:16.654Z,87.5
2023-03-13T03:47:17.334Z,87.5
2023-03-13T03:48:16.877Z,87.5
2023-03-13T03:49:17.372Z,87.5
2023-03-13T03:50:16.865Z,87.6
2023-03-13T03:51:17.344Z,87.6
2023-03-13T03:52:16.480Z,87.7
2023-03-13T03:53:16.979Z,87.7
2023-03-13T03:54:16.503Z,87.7
2023-03-13T03:55:17.017Z,87.7
2023-03-13T03:56:16.507Z,87.7
2023-03-13T03:57:17.003Z,87.7
2023-03-13T03:58:16.512Z,87.7
2023-03-13T03:59:17.017Z,87.7
2023-03-13T04:00:16.574Z,87.7
2023-03-13T04:01:17.091Z,87.7
2023-03-13T04:02:17.212Z,87.7
2023-03-13T04:03:16.898Z,87.8
2023-03-13T04:04:16.454Z,87.8
2023-03-13T04:05:16.949Z,87.8
2023-03-13T04:06:17.504Z,87.9
2023-03-13T04:07:17.017Z,87.9
2023-03-13T04:08:16.553Z,87.9
2023-03-13T04:09:17.071Z,87.8
2023-03-13T04:10:16.589Z,87.8
2023-03-13T04:11:17.127Z,87.8
2023-03-13T04:12:17.259Z,87.9
2023-03-13T04:13:16.789Z,87.8
2023-03-13T04:14:17.274Z,87.8
2023-03-13T04:15:16.788Z,87.8
2023-03-13T04:16:17.508Z,87.8
2023-03-13T04:17:17.070Z,87.8
2023-03-13T04:18:16.601Z,87.7
2023-03-13T04:19:17.104Z,87.8
2023-03-13T04:20:16.618Z,87.7
2023-03-13T04:21:17.134Z,87.7
2023-03-13T04:22:17.278Z,87.8
2023-03-13T04:23:16.796Z,87.8
2023-03-13T04:24:17.286Z,87.6
2023-03-13T04:25:16.878Z,87.7
2023-03-13T04:26:16.473Z,87.8
2023-03-13T04:27:16.977Z,87.7
2023-03-13T04:28:16.442Z,87.7
2023-03-13T04:29:16.942Z,87.7
2023-03-13T04:30:18.922Z,87.7
2023-03-13T04:31:17.570Z,87.7
2023-03-13T04:32:17.042Z,87.7
2023-03-13T04:33:16.569Z,87.7
2023-03-13T04:34:17.077Z,87.8
2023-03-13T04:35:16.814Z,87.6
2023-03-13T04:36:17.457Z,87.7
2023-03-13T04:37:17.012Z,87.7
2023-03-13T04:38:16.484Z,87.7
2023-03-13T04:39:16.987Z,87.6
2023-03-13T04:40:16.488Z,87.6
2023-03-13T04:41:17.020Z,87.6
2023-03-13T04:42:17.094Z,87.5
2023-03-13T04:43:16.562Z,87.4
2023-03-13T04:44:17.083Z,87.4
2023-03-13T04:45:16.576Z,87.5
2023-03-13T04:46:17.128Z,87.4
2023-03-13T04:47:16.678Z,87.5
2023-03-13T04:48:17.188Z,87.5
2023-03-13T04:49:16.743Z,87.5
2023-03-13T04:51:17.326Z,87.5
2023-03-13T04:52:16.774Z,87.6
2023-03-13T04:53:17.246Z,87.7
2023-03-13T04:54:16.731Z,87.7
2023-03-13T04:55:17.193Z,87.5
2023-03-13T04:56:16.721Z,87.6
2023-03-13T04:57:17.253Z,87.7
2023-03-13T04:58:16.809Z,87.8
2023-03-13T04:59:17.308Z,87.8
2023-03-13T05:00:16.816Z,87.8
2023-03-13T05:01:17.386Z,87.7
2023-03-13T05:02:17.414Z,87.8
2023-03-13T05:03:16.889Z,87.7
2023-03-13T05:04:17.396Z,87.8
2023-03-13T05:05:17.096Z,87.9
2023-03-13T05:06:16.609Z,87.9
2023-03-13T05:07:17.097Z,88.0
2023-03-13T05:08:16.574Z,88.1
2023-03-13T05:09:17.075Z,88.1
2023-03-13T05:10:16.592Z,88.1
2023-03-13T05:11:17.071Z,88.1
2023-03-13T05:12:17.181Z,88.3
2023-03-13T05:13:16.674Z,88.3
2023-03-13T05:14:17.166Z,88.2
2023-03-13T05:15:16.656Z,88.2
2023-03-13T05:16:17.497Z,88.5
2023-03-13T05:17:17.111Z,88.5
2023-03-13T05:18:16.626Z,88.6
2023-03-13T05:19:17.124Z,88.7
2023-03-13T05:20:16.631Z,88.8
2023-03-13T05:21:17.104Z,88.9
2023-03-13T05:22:17.232Z,88.9
2023-03-13T05:23:16.718Z,89.0
2023-03-13T05:24:17.223Z,89.0
2023-03-13T05:25:16.719Z,89.0
2023-03-13T05:26:17.221Z,89.2
2023-03-13T05:27:16.745Z,89.3
2023-03-13T05:29:17.305Z,89.4
2023-03-13T05:30:16.790Z,89.5
2023-03-13T05:32:17.470Z,89.8
2023-03-13T05:33:16.984Z,89.9
2023-03-13T05:34:16.483Z,90.0
2023-03-13T05:35:17.305Z,90.0
2023-03-13T05:36:16.992Z,90.0
2023-03-13T05:37:16.597Z,90.1
2023-03-13T05:38:17.100Z,90.3
2023-03-13T05:39:16.603Z,90.5
2023-03-13T05:40:17.136Z,90.7
2023-03-13T05:41:16.618Z,90.6
2023-03-13T05:42:16.739Z,90.6
2023-03-13T05:43:17.244Z,90.7
2023-03-13T05:44:16.760Z,90.9
2023-03-13T05:45:17.226Z,90.9
2023-03-13T05:46:16.815Z,90.9
2023-03-13T05:47:17.343Z,91.0
2023-03-13T05:48:16.949Z,91.0
2023-03-13T05:49:16.612Z,91.1
2023-03-13T05:50:17.104Z,91.1
2023-03-13T05:51:16.591Z,91.5
2023-03-13T05:52:16.720Z,91.5
2023-03-13T05:53:17.206Z,91.5
2023-03-13T05:54:16.732Z,91.9
2023-03-13T05:55:17.236Z,91.9
2023-03-13T05:56:16.727Z,91.9
2023-03-13T05:57:17.229Z,91.9
2023-03-13T05:58:16.741Z,92.2
2023-03-13T05:59:17.240Z,92.4
2023-03-13T06:00:16.736Z,92.4
2023-03-13T06:01:17.239Z,92.7
2023-03-13T06:02:17.339Z,92.9
2023-03-13T06:03:16.808Z,92.8
2023-03-13T06:04:17.520Z,93.1
2023-03-13T06:05:17.091Z,93.1
2023-03-13T06:06:16.596Z,93.3
2023-03-13T06:07:17.115Z,93.5
2023-03-13T06:08:16.653Z,93.7
2023-03-13T06:09:17.155Z,93.9
2023-03-13T06:10:16.643Z,93.9
2023-03-13T06:11:17.134Z,94.0
2023-03-13T06:12:17.278Z,94.1
2023-03-13T06:13:20.491Z,94.3
2023-03-13T06:14:17.084Z,94.3
2023-03-13T06:15:16.636Z,94.2
2023-03-13T06:16:17.200Z,94.2
2023-03-13T06:17:16.729Z,94.4
2023-03-13T06:18:17.298Z,94.6
2023-03-13T06:19:16.829Z,94.7
2023-03-13T06:20:17.346Z,95.0
2023-03-13T06:22:17.201Z,94.9
2023-03-13T06:23:16.721Z,94.8
2023-03-13T06:24:17.266Z,95.1
2023-03-13T06:25:16.768Z,95.0
2023-03-13T06:26:17.301Z,95.0
2023-03-13T06:27:16.809Z,94.9
2023-03-13T06:28:17.330Z,94.9
2023-03-13T06:29:16.812Z,94.9
2023-03-13T06:30:17.300Z,94.7
2023-03-13T06:31:16.883Z,94.8
2023-03-13T06:32:16.832Z,94.7
2023-03-13T06:33:17.658Z,94.8
2023-03-13T06:35:17.264Z,94.8
2023-03-13T06:36:16.876Z,94.8
2023-03-13T06:37:17.440Z,94.8
2023-03-13T06:38:16.920Z,95.0
2023-03-13T06:39:17.462Z,95.1
2023-03-13T06:40:16.947Z,95.1
2023-03-13T06:41:17.430Z,95.1
2023-03-13T06:42:16.611Z,95.1
2023-03-13T06:43:17.132Z,95.1
2023-03-13T06:44:16.634Z,95.0
2023-03-13T06:45:17.129Z,94.9
2023-03-13T06:46:16.694Z,95.0
2023-03-13T06:47:17.393Z,94.9
2023-03-13T06:48:16.945Z,94.8
2023-03-13T06:49:17.441Z,94.8
2023-03-13T06:50:16.919Z,94.8
2023-03-13T06:51:17.452Z,94.7
2023-03-13T06:52:18.817Z,94.8
2023-03-13T06:53:16.797Z,94.8
2023-03-13T06:54:17.281Z,94.8
2023-03-13T06:55:16.769Z,94.8
2023-03-13T06:56:17.251Z,94.8
2023-03-13T06:57:16.756Z,94.6
2023-03-13T06:58:32.705Z,94.6
2023-03-13T06:59:17.463Z,94.6
2023-03-13T07:00:16.956Z,94.5
2023-03-13T07:01:17.601Z,94.5
2023-03-13T07:02:16.575Z,94.5
2023-03-13T07:03:17.071Z,94.5
2023-03-13T07:04:16.835Z,94.3
2023-03-13T07:05:17.472Z,94.2
2023-03-13T07:06:17.081Z,94.2
2023-03-13T07:07:31.970Z,94.2
2023-03-13T07:08:16.789Z,94.3
2023-03-13T07:09:17.288Z,94.3
2023-03-13T07:10:16.767Z,94.3
2023-03-13T07:11:17.278Z,94.3
2023-03-13T07:12:17.461Z,94.3
2023-03-13T07:14:18.146Z,94.1
2023-03-13T07:15:16.665Z,94.1
2023-03-13T07:16:17.244Z,94.1
2023-03-13T07:17:16.823Z,94.0
2023-03-13T07:18:17.379Z,94.0
2023-03-13T07:19:16.964Z,94.0
2023-03-13T07:20:18.189Z,94.0
2023-03-13T07:21:16.730Z,94.0
2023-03-13T07:22:17.421Z,94.0
2023-03-13T07:23:16.952Z,93.9
2023-03-13T07:24:17.564Z,94.0
2023-03-13T07:25:17.116Z,93.9
2023-03-13T07:26:16.750Z,93.9
2023-03-13T07:27:17.471Z,93.9
2023-03-13T07:28:16.987Z,93.9
2023-03-13T07:29:16.517Z,93.9
2023-03-13T07:30:17.022Z,93.8
2023-03-13T07:31:16.808Z,93.7
2023-03-13T07:32:16.833Z,93.5
2023-03-13T07:33:17.344Z,93.5
2023-03-13T07:34:16.844Z,93.7
2023-03-13T07:35:17.354Z,93.7
2023-03-13T07:36:17.054Z,93.5
2023-03-13T07:37:16.581Z,93.5
2023-03-13T07:38:17.064Z,93.3
2023-03-13T07:39:16.644Z,93.3
2023-03-13T07:40:17.166Z,93.3
2023-03-13T07:41:16.709Z,93.1
2023-03-13T07:42:16.774Z,93.1
2023-03-13T07:43:17.311Z,92.9
2023-03-13T07:44:16.812Z,93.0
2023-03-13T07:45:17.360Z,92.9
2023-03-13T07:46:17.033Z,92.8
2023-03-13T07:47:16.624Z,92.7
2023-03-13T07:48:17.151Z,92.8
2023-03-13T07:49:16.652Z,92.8
2023-03-13T07:50:17.252Z,92.7
2023-03-13T07:51:16.781Z,92.6
2023-03-13T07:52:16.793Z,92.4
2023-03-13T07:53:17.410Z,92.3
2023-03-13T07:54:16.918Z,92.0
2023-03-13T07:55:17.412Z,92.1
2023-03-13T07:56:16.872Z,91.9
2023-03-13T07:57:17.901Z,91.9
2023-03-13T07:58:17.385Z,91.7
2023-03-13T07:59:16.881Z,91.9
2023-03-13T08:00:17.434Z,91.5
2023-03-13T08:01:16.941Z,91.5
2023-03-13T08:02:17.357Z,91.5
2023-03-13T08:03:16.988Z,91.5
2023-03-13T08:04:16.510Z,91.2
2023-03-13T08:05:17.019Z,91.0
2023-03-13T08:06:16.539Z,90.9
2023-03-13T08:07:17.023Z,90.9
2023-03-13T08:08:16.521Z,90.9
2023-03-13T08:09:17.042Z,90.8
2023-03-13T08:10:16.507Z,90.4
2023-03-13T08:11:17.100Z,90.2
2023-03-13T08:12:17.184Z,90.0
2023-03-13T08:13:16.684Z,90.1
2023-03-13T08:14:17.180Z,90.1
2023-03-13T08:15:16.669Z,90.2
2023-03-13T08:16:17.304Z,90.0
2023-03-13T08:17:16.809Z,89.9
2023-03-13T08:18:17.310Z,89.9
2023-03-13T08:20:16.868Z,90.1
2023-03-13T08:21:17.357Z,90.0
2023-03-13T08:22:16.622Z,90.0
2023-03-13T08:23:17.118Z,89.9
2023-03-13T08:24:16.656Z,89.9
2023-03-13T08:25:17.215Z,89.7
2023-03-13T08:26:16.772Z,89.8
2023-03-13T08:27:17.289Z,89.6
2023-03-13T08:28:16.788Z,89.7
2023-03-13T08:29:17.277Z,89.6
2023-03-13T08:30:16.760Z,89.6
2023-03-13T08:31:17.460Z,89.5
2023-03-13T08:32:17.599Z,89.5
2023-03-13T08:33:17.126Z,89.5
2023-03-13T08:34:16.669Z,89.4
2023-03-13T08:35:17.223Z,89.5
2023-03-13T08:36:16.738Z,89.4
2023-03-13T08:37:17.242Z,89.3
2023-03-13T08:38:16.758Z,89.4
2023-03-13T08:39:17.365Z,89.5
2023-03-13T08:40:16.869Z,89.3
2023-03-13T08:41:17.357Z,89.2
2023-03-13T08:42:16.524Z,89.1
2023-03-13T08:43:16.995Z,89.2
2023-03-13T08:44:16.483Z,89.1
2023-03-13T08:45:17.045Z,88.8
2023-03-13T08:46:19.820Z,88.9
2023-03-13T08:47:17.459Z,88.8
2023-03-13T08:48:16.969Z,88.9
2023-03-13T08:49:16.470Z,89.0
2023-03-13T08:50:16.972Z,88.9
2023-03-13T08:51:16.464Z,89.0
2023-03-13T08:52:16.590Z,88.6
2023-03-13T08:53:17.079Z,88.6
2023-03-13T08:54:16.597Z,88.4
2023-03-13T08:55:17.110Z,88.4
2023-03-13T08:56:16.609Z,88.4
2023-03-13T08:57:17.093Z,88.3
2023-03-13T08:58:16.595Z,88.2
2023-03-13T08:59:17.081Z,88.2
2023-03-13T09:00:16.587Z,88.4
2023-03-13T09:01:17.132Z,88.4
2023-03-13T09:02:16.921Z,88.1
2023-03-13T09:03:17.632Z,88.4
2023-03-13T09:04:17.168Z,88.2
2023-03-13T09:05:16.703Z,88.1
2023-03-13T09:06:17.199Z,88.0
2023-03-13T09:07:16.711Z,88.0
2023-03-13T09:08:17.214Z,87.8
2023-03-13T09:09:16.708Z,87.9
2023-03-13T09:10:17.202Z,87.8
2023-03-13T09:11:16.724Z,87.9
2023-03-13T09:12:31.308Z,87.7
2023-03-13T09:13:16.871Z,87.7
2023-03-13T09:14:17.369Z,87.7
2023-03-13T09:15:16.879Z,87.7
2023-03-13T09:16:17.605Z,87.3
2023-03-13T09:17:17.172Z,87.4
2023-03-13T09:18:16.739Z,87.6
2023-03-13T09:19:17.424Z,87.2
2023-03-13T09:20:16.932Z,87.2
2023-03-13T09:21:17.433Z,86.7
2023-03-13T09:22:16.573Z,86.2
2023-03-13T09:23:17.042Z,86.4
2023-03-13T09:24:16.536Z,86.5
2023-03-13T09:25:17.025Z,86.8
2023-03-13T09:26:16.504Z,86.8
2023-03-13T09:27:17.019Z,86.8
2023-03-13T09:28:16.533Z,86.4
2023-03-13T09:29:17.053Z,86.7
2023-03-13T09:30:16.567Z,86.6
2023-03-13T09:31:17.270Z,86.6
2023-03-13T09:32:17.299Z,86.9
2023-03-13T09:33:16.808Z,86.5
2023-03-13T09:34:17.319Z,86.6
2023-03-13T09:35:16.851Z,86.3
2023-03-13T09:36:22.517Z,86.4
2023-03-13T09:37:17.235Z,86.3
2023-03-13T09:38:16.713Z,86.1
2023-03-13T09:39:17.202Z,86.3
2023-03-13T09:40:16.699Z,86.2
2023-03-13T09:41:17.234Z,86.3
2023-03-13T09:42:17.330Z,86.2
2023-03-13T09:43:16.833Z,86.2
2023-03-13T09:44:17.332Z,86.2
2023-03-13T09:45:16.886Z,85.9
2023-03-13T09:46:17.539Z,86.1
2023-03-13T09:47:17.053Z,85.9
2023-03-13T09:48:16.550Z,86.2
2023-03-13T09:49:18.663Z,86.0
2023-03-13T09:50:17.137Z,86.0
2023-03-13T09:51:16.655Z,85.7
2023-03-13T09:52:17.172Z,85.9
2023-03-13T09:53:16.664Z,85.7
2023-03-13T09:54:17.169Z,85.8
2023-03-13T09:55:16.674Z,86.0
2023-03-13T09:56:17.165Z,86.2
2023-03-13T09:57:16.709Z,86.2
2023-03-13T09:58:17.236Z,86.3
2023-03-13T09:59:16.720Z,86.3
2023-03-13T10:00:17.211Z,86.2
2023-03-13T10:01:16.756Z,86.5
2023-03-13T10:02:16.876Z,86.5
2023-03-13T10:03:16.506Z,86.6
2023-03-13T10:04:17.050Z,86.7
2023-03-13T10:05:16.582Z,86.3
2023-03-13T10:06:17.094Z,86.4
2023-03-13T10:07:16.682Z,86.5
2023-03-13T10:08:17.190Z,86.4
2023-03-13T10:09:16.696Z,86.5
2023-03-13T10:10:17.184Z,86.3
2023-03-13T10:11:16.667Z,86.5
2023-03-13T10:12:16.630Z,86.2
2023-03-13T10:13:17.095Z,86.1
2023-03-13T10:14:16.608Z,86.1
2023-03-13T10:15:17.207Z,85.0
2023-03-13T10:16:19.666Z,85.4
2023-03-13T10:17:17.220Z,85.3
2023-03-13T10:18:16.756Z,85.3
2023-03-13T10:19:17.256Z,85.3
2023-03-13T10:20:16.753Z,85.2
2023-03-13T10:21:17.265Z,85.0
2023-03-13T10:22:17.414Z,85.0
2023-03-13T10:24:16.999Z,84.8
2023-03-13T10:25:16.459Z,84.8
2023-03-13T10:26:16.939Z,84.7
2023-03-13T10:27:17.405Z,84.9
2023-03-13T10:28:16.912Z,84.8
2023-03-13T10:29:17.445Z,85.2
2023-03-13T10:30:16.940Z,85.2
2023-03-13T10:31:17.602Z,85.0
2023-03-13T10:32:16.887Z,84.9
2023-03-13T10:33:17.414Z,84.5
2023-03-13T10:34:16.945Z,84.5
2023-03-13T10:35:17.438Z,84.7
2023-03-13T10:36:17.089Z,84.6
2023-03-13T10:37:16.616Z,84.7
2023-03-13T10:38:17.106Z,84.7
2023-03-13T10:39:16.610Z,84.8
2023-03-13T10:40:17.138Z,84.8
2023-03-13T10:41:16.679Z,84.9
2023-03-13T10:42:16.710Z,84.8
2023-03-13T10:43:17.183Z,85.0
2023-03-13T10:44:16.678Z,84.9
2023-03-13T10:45:17.204Z,84.8
2023-03-13T10:46:16.826Z,84.9
2023-03-13T10:47:17.381Z,84.5
2023-03-13T10:48:16.902Z,84.7
2023-03-13T10:49:17.390Z,84.5
2023-03-13T10:50:16.921Z,84.9
2023-03-13T10:51:17.404Z,85.0
2023-03-13T10:52:16.492Z,84.8
2023-03-13T10:53:16.967Z,84.7
2023-03-13T10:54:16.471Z,84.7
2023-03-13T10:56:17.428Z,84.8
2023-03-13T10:57:16.917Z,84.8
2023-03-13T10:58:17.399Z,84.9
2023-03-13T10:59:16.913Z,84.7
2023-03-13T11:00:17.428Z,84.5
2023-03-13T11:01:16.931Z,84.8
2023-03-13T11:02:17.083Z,84.8
2023-03-13T11:03:16.953Z,85.0
2023-03-13T11:04:16.599Z,84.8
2023-03-13T11:05:17.078Z,85.0
2023-03-13T11:06:16.546Z,85.0
2023-03-13T11:07:17.040Z,85.0
2023-03-13T11:08:16.655Z,85.0
2023-03-13T11:09:17.157Z,85.0
2023-03-13T11:10:16.690Z,84.8
2023-03-13T11:11:17.170Z,84.7
2023-03-13T11:12:17.315Z,84.4
2023-03-13T11:13:34.130Z,84.2
2023-03-13T11:14:16.767Z,83.7
2023-03-13T11:15:17.498Z,83.7
2023-03-13T11:16:17.153Z,83.7
2023-03-13T11:17:16.695Z,83.6
2023-03-13T11:18:17.202Z,83.6
2023-03-13T11:19:16.694Z,83.3
2023-03-13T11:20:17.237Z,83.2
2023-03-13T11:21:18.786Z,83.1
2023-03-13T11:22:17.554Z,82.8
2023-03-13T11:23:17.074Z,82.7
2023-03-13T11:24:16.705Z,82.7
2023-03-13T11:25:18.132Z,82.9
2023-03-13T11:26:16.661Z,82.5
2023-03-13T11:27:17.190Z,82.5
2023-03-13T11:28:16.716Z,82.2
2023-03-13T11:29:17.211Z,82.3
2023-03-13T11:30:16.718Z,81.9
2023-03-13T11:31:17.241Z,82.2
2023-03-13T11:32:17.706Z,82.2
2023-03-13T11:33:17.231Z,82.1
2023-03-13T11:34:16.742Z,82.0
2023-03-13T11:35:17.244Z,82.0
2023-03-13T11:36:16.930Z,82.0
2023-03-13T11:37:17.439Z,82.3
2023-03-13T11:38:16.965Z,82.3
2023-03-13T11:39:16.453Z,82.5
2023-03-13T11:40:17.170Z,82.4
2023-03-13T11:41:16.852Z,82.6
2023-03-13T11:42:16.835Z,82.7
2023-03-13T11:43:26.115Z,82.9
2023-03-13T11:44:16.762Z,82.9
2023-03-13T11:45:17.284Z,82.9
2023-03-13T11:46:16.990Z,82.8
2023-03-13T11:47:16.491Z,82.9
2023-03-13T11:48:16.957Z,82.9
2023-03-13T11:49:17.479Z,82.8
2023-03-13T11:50:16.994Z,82.9
2023-03-13T11:51:17.950Z,82.9
2023-03-13T11:52:16.613Z,83.1
2023-03-13T11:53:17.291Z,83.2
2023-03-13T11:54:16.865Z,83.2
2023-03-13T11:55:17.372Z,83.1
2023-03-13T11:56:16.866Z,83.0
2023-03-13T11:57:17.387Z,83.0
2023-03-13T11:58:16.885Z,82.9
2023-03-13T11:59:17.364Z,83.0
2023-03-13T12:00:16.857Z,82.9
2023-03-13T12:01:17.582Z,82.8
2023-03-13T12:02:16.791Z,82.9
2023-03-13T12:03:17.471Z,83.2
2023-03-13T12:04:16.989Z,83.2
2023-03-13T12:05:16.673Z,82.8
2023-03-13T12:06:28.943Z,82.5
2023-03-13T12:07:16.496Z,82.2
2023-03-13T12:08:16.992Z,82.0
2023-03-13T12:09:16.502Z,81.8
2023-03-13T12:10:17.007Z,81.8
2023-03-13T12:11:16.493Z,81.6
2023-03-13T12:12:16.645Z,81.4
2023-03-13T12:13:17.143Z,81.1
2023-03-13T12:14:16.644Z,80.9
2023-03-13T12:15:19.485Z,80.3
2023-03-13T12:16:17.072Z,80.1
2023-03-13T12:17:16.670Z,80.4
2023-03-13T12:18:17.226Z,79.9
2023-03-13T12:19:16.708Z,79.7
2023-03-13T12:20:17.194Z,79.0
2023-03-13T12:21:16.712Z,78.5
2023-03-13T12:22:17.203Z,78.6
2023-03-13T12:23:16.703Z,78.3
2023-03-13T12:24:17.209Z,78.5
2023-03-13T12:25:16.786Z,78.4
2023-03-13T12:26:17.367Z,78.3
2023-03-13T12:27:16.866Z,78.4
2023-03-13T12:28:17.468Z,78.2
2023-03-13T12:29:17.026Z,78.2
2023-03-13T12:30:16.509Z,78.2
2023-03-13T12:31:17.267Z,78.7
2023-03-13T12:32:17.294Z,78.5
2023-03-13T12:33:16.866Z,78.5
2023-03-13T12:34:17.404Z,78.7
2023-03-13T12:35:16.922Z,78.7
2023-03-13T12:36:17.569Z,78.7
2023-03-13T12:37:17.092Z,78.7
2023-03-13T12:38:16.570Z,78.8
2023-03-13T12:39:17.081Z,78.8
2023-03-13T12:40:16.666Z,78.7
2023-03-13T12:41:17.240Z,78.7
2023-03-13T12:42:17.217Z,78.9
2023-03-13T12:43:16.726Z,78.9
2023-03-13T12:44:17.268Z,78.5
2023-03-13T12:45:16.922Z,78.3
2023-03-13T12:46:16.582Z,78.2
2023-03-13T12:47:17.284Z,78.2
2023-03-13T12:48:17.088Z,78.1
2023-03-13T12:49:16.624Z,78.0
2023-03-13T12:50:17.166Z,77.8
2023-03-13T12:51:16.670Z,77.9
2023-03-13T12:52:17.153Z,78.1
2023-03-13T12:53:20.888Z,77.4
2023-03-13T12:54:16.699Z,77.0
2023-03-13T12:55:17.219Z,77.0
2023-03-13T12:56:16.748Z,77.3
2023-03-13T12:57:17.352Z,77.2
2023-03-13T12:58:16.873Z,77.1
2023-03-13T12:59:17.381Z,77.2
2023-03-13T13:00:16.900Z,76.9
2023-03-13T13:01:17.611Z,76.6
2023-03-13T13:02:16.536Z,76.5
2023-03-13T13:03:17.112Z,76.3
2023-03-13T13:04:16.700Z,76.3
2023-03-13T13:05:17.239Z,76.2
2023-03-13T13:06:16.760Z,76.4
2023-03-13T13:07:17.301Z,76.4
2023-03-13T13:08:16.811Z,76.2
2023-03-13T13:09:17.297Z,75.8
2023-03-13T13:10:16.782Z,75.8
2023-03-13T13:11:17.277Z,75.8
2023-03-13T13:12:17.435Z,75.5
2023-03-13T13:13:16.956Z,75.8
2023-03-13T13:14:17.475Z,75.8
2023-03-13T13:15:16.994Z,75.1
2023-03-13T13:16:16.612Z,75.3
2023-03-13T13:17:17.158Z,75.4
2023-03-13T13:18:16.705Z,75.0
2023-03-13T13:19:17.240Z,74.6
2023-03-13T13:20:16.784Z,74.4
2023-03-13T13:21:17.266Z,74.1
2023-03-13T13:22:17.489Z,74.3
2023-03-13T13:23:17.074Z,74.1
2023-03-13T13:24:16.547Z,74.1
2023-03-13T13:25:17.076Z,74.4
2023-03-13T13:26:16.566Z,74.8
2023-03-13T13:27:17.082Z,75.1
2023-03-13T13:28:16.584Z,74.6
2023-03-13T13:29:17.094Z,74.2
2023-03-13T13:30:16.603Z,74.3
2023-03-13T13:31:17.362Z,74.3
2023-03-13T13:32:17.667Z,74.2
2023-03-13T13:33:17.224Z,74.3
2023-03-13T13:34:16.709Z,74.3
2023-03-13T13:35:17.190Z,74.1
2023-03-13T13:36:16.786Z,73.7
2023-03-13T13:37:17.321Z,73.8
2023-03-13T13:38:16.799Z,73.4
2023-03-13T13:39:17.324Z,73.5
2023-03-13T13:40:17.008Z,73.3
2023-03-13T13:41:16.514Z,73.5
2023-03-13T13:42:17.435Z,73.5
2023-03-13T13:43:16.936Z,73.6
2023-03-13T13:44:17.432Z,73.4
2023-03-13T13:45:16.956Z,73.4
2023-03-13T13:46:16.542Z,73.5
2023-03-13T13:47:17.070Z,73.3
2023-03-13T13:48:16.588Z,73.2
2023-03-13T13:49:17.103Z,73.0
2023-03-13T13:50:16.582Z,72.9
2023-03-13T13:51:17.069Z,72.6
2023-03-13T13:52:17.244Z,72.7
2023-03-13T13:53:16.746Z,72.6
2023-03-13T13:54:17.253Z,72.7
2023-03-13T13:55:16.753Z,72.6
2023-03-13T13:56:17.239Z,72.5
2023-03-13T13:57:16.774Z,72.5
2023-03-13T13:58:17.309Z,72.6
2023-03-13T13:59:16.830Z,72.5
2023-03-13T14:00:17.366Z,72.5
2023-03-13T14:01:16.987Z,72.4
2023-03-13T14:02:17.133Z,72.5
2023-03-13T14:03:16.624Z,72.6
2023-03-13T14:04:17.115Z,72.6
2023-03-13T14:05:16.766Z,72.6
2023-03-13T14:06:17.348Z,72.5
2023-03-13T14:07:16.876Z,72.2
2023-03-13T14:08:17.372Z,72.2
2023-03-13T14:09:16.858Z,72.3
2023-03-13T14:10:18.145Z,72.4
2023-03-13T14:11:16.659Z,72.3
2023-03-13T14:12:16.489Z,72.1
2023-03-13T14:13:17.041Z,72.3
2023-03-13T14:14:16.562Z,72.1
2023-03-13T14:15:17.075Z,72.2
2023-03-13T14:16:16.588Z,72.1
2023-03-13T14:17:17.103Z,72.2
2023-03-13T14:18:16.607Z,72.1
2023-03-13T14:19:17.116Z,71.8
2023-03-13T14:20:16.669Z,71.5
2023-03-13T14:21:17.202Z,71.5
2023-03-13T14:22:17.268Z,71.5
2023-03-13T14:23:16.762Z,71.4
2023-03-13T14:24:17.325Z,71.4
2023-03-13T14:25:16.990Z,71.3
2023-03-13T14:26:16.519Z,71.3
2023-03-13T14:27:17.037Z,71.1
2023-03-13T14:28:16.558Z,71.4
2023-03-13T14:29:17.042Z,71.4
2023-03-13T14:30:16.538Z,71.3
2023-03-13T14:31:17.157Z,71.4
2023-03-13T14:32:17.341Z,71.5
2023-03-13T14:33:16.845Z,71.6
2023-03-13T14:34:17.374Z,71.4
2023-03-13T14:35:16.877Z,71.4
2023-03-13T14:36:17.365Z,71.5
2023-03-13T14:37:18.519Z,71.6
2023-03-13T14:38:17.328Z,71.7